createdAt,value
2023-05-25T00:00:32.831Z,0.50
2023-05-25T00:05:34.902Z,0.60
2023-05-25T00:10:36.932Z,0.57
2023-05-25T00:15:38.976Z,0.47
2023-05-25T00:20:41.297Z,0.57
2023-05-25T00:25:43.632Z,0.80
2023-05-25T00:30:46.023Z,0.57
2023-05-25T00:35:48.277Z,0.75
2023-05-25T00:40:56.593Z,0.60
2023-05-25T00:45:58.812Z,0.55
2023-05-25T00:51:01.059Z,0.68
2023-05-25T00:56:20.570Z,0.73
2023-05-25T01:01:23.402Z,0.70
2023-05-25T01:06:30.546Z,0.60
2023-05-25T01:11:35.537Z,0.52
2023-05-25T01:16:38.356Z,0.55
2023-05-25T01:21:42.539Z,0.70
2023-05-25T01:26:54.806Z,0.75
2023-05-25T01:31:58.914Z,0.65
2023-05-25T01:37:01.410Z,0.50
2023-05-25T01:42:03.454Z,0.43
2023-05-25T01:47:20.912Z,0.50
2023-05-25T01:52:27.262Z,0.40
2023-05-25T01:57:30.194Z,0.70
2023-05-25T02:02:33.519Z,0.55
2023-05-25T02:07:36.624Z,0.40
2023-05-25T02:12:38.742Z,0.52
2023-05-25T02:17:40.758Z,0.60
2023-05-25T02:22:42.803Z,0.70
2023-05-25T02:27:45.606Z,0.82
2023-05-25T02:32:47.797Z,0.38
2023-05-25T02:37:51.244Z,0.55
2023-05-25T02:42:53.510Z,0.50
2023-05-25T02:47:56.097Z,0.60
2023-05-25T02:52:58.171Z,0.60
2023-05-25T02:58:01.256Z,0.50
2023-05-25T03:03:03.338Z,0.50
2023-05-25T03:08:05.384Z,0.63
2023-05-25T03:13:07.430Z,0.57
2023-05-25T03:18:09.376Z,0.50
2023-05-25T03:23:11.604Z,0.55
2023-05-25T03:28:13.609Z,0.55
2023-05-25T03:33:15.663Z,0.50
2023-05-25T03:38:17.692Z,0.38
2023-05-25T03:43:19.821Z,0.50
2023-05-25T03:48:21.811Z,0.57
2023-05-25T03:53:23.837Z,0.55
2023-05-25T03:58:26.047Z,0.40
2023-05-25T04:03:28.306Z,0.70
2023-05-25T04:08:30.401Z,0.70
2023-05-25T04:13:36.140Z,0.60
2023-05-25T04:18:38.461Z,0.43
2023-05-25T04:23:41.330Z,0.57
2023-05-25T04:28:43.324Z,0.52
2023-05-25T04:33:46.489Z,0.50
2023-05-25T04:38:49.161Z,0.50
2023-05-25T04:44:06.551Z,0.75
2023-05-25T04:49:13.730Z,0.45
2023-05-25T04:54:16.251Z,0.80
2023-05-25T04:59:18.356Z,0.60
2023-05-25T05:04:20.899Z,0.60
2023-05-25T05:09:23.224Z,0.50
2023-05-25T05:14:25.556Z,0.47
2023-05-25T05:19:27.472Z,0.70
2023-05-25T05:24:30.371Z,0.57
2023-05-25T05:29:32.261Z,0.60
2023-05-25T05:34:34.616Z,0.45
2023-05-25T05:39:37.756Z,0.50
2023-05-25T05:44:39.863Z,0.50
2023-05-25T05:49:42.144Z,0.70
2023-05-25T05:54:44.482Z,0.32
2023-05-25T05:59:46.588Z,0.85
2023-05-25T06:04:48.494Z,0.77
2023-05-25T06:09:50.707Z,0.60
2023-05-25T06:14:53.439Z,0.60
2023-05-25T06:19:55.946Z,0.60
2023-05-25T06:24:58.019Z,0.68
2023-05-25T06:30:00.034Z,0.77
2023-05-25T06:35:02.678Z,0.52
2023-05-25T06:40:05.878Z,0.75
2023-05-25T06:45:08.703Z,0.52
2023-05-25T06:50:11.099Z,0.80
2023-05-25T06:55:13.825Z,0.60
2023-05-25T07:00:16.765Z,0.90
2023-05-25T07:05:18.968Z,1.25
2023-05-25T07:10:25.495Z,0.65
2023-05-25T07:15:27.484Z,0.90
2023-05-25T07:20:30.783Z,0.95
2023-05-25T07:25:32.888Z,0.80
2023-05-25T07:30:35.006Z,0.80
2023-05-25T07:35:37.144Z,0.68
2023-05-25T07:40:39.214Z,1.10
2023-05-25T07:45:41.640Z,0.73
2023-05-25T07:50:43.702Z,1.10
2023-05-25T07:55:46.207Z,0.88
2023-05-25T08:00:50.187Z,0.90
2023-05-25T08:05:52.336Z,0.90
2023-05-25T08:10:54.346Z,0.80
2023-05-25T08:15:56.317Z,0.73
2023-05-25T08:20:58.688Z,2.20
2023-05-25T08:26:01.348Z,2.47
2023-05-25T08:31:04.540Z,3.33
2023-05-25T08:36:07.109Z,3.42
2023-05-25T08:41:09.307Z,2.85
2023-05-25T08:46:12.024Z,2.60
2023-05-25T08:51:16.042Z,2.42
2023-05-25T08:56:20.706Z,3.15
2023-05-25T09:01:26.641Z,2.83
2023-05-25T09:06:29.345Z,2.85
2023-05-25T09:11:39.343Z,3.10
2023-05-25T09:16:43.112Z,3.28
2023-05-25T09:21:45.431Z,2.15
2023-05-25T09:26:49.906Z,2.65
2023-05-25T09:31:52.503Z,2.78
2023-05-25T09:36:55.633Z,2.47
2023-05-25T09:41:58.282Z,2.60
2023-05-25T09:47:00.425Z,2.47
2023-05-25T09:52:02.878Z,2.50
2023-05-25T09:57:05.907Z,3.15
2023-05-25T10:02:08.183Z,2.28
2023-05-25T10:07:10.431Z,2.65
2023-05-25T10:12:16.485Z,2.60
2023-05-25T10:17:23.813Z,1.92
2023-05-25T10:23:05.390Z,2.60
2023-05-25T10:28:27.568Z,2.47
2023-05-25T10:38:34.010Z,1.92
2023-05-25T10:43:36.560Z,1.60
2023-05-25T10:48:52.337Z,1.77
2023-05-25T10:54:02.437Z,1.45
2023-05-25T10:59:04.660Z,1.40
2023-05-25T11:04:07.145Z,1.25
2023-05-25T11:09:24.630Z,1.50
2023-05-25T11:14:38.816Z,1.08
2023-05-25T11:19:48.759Z,1.10
2023-05-25T11:24:53.966Z,1.20
2023-05-25T11:29:59.786Z,1.42
2023-05-25T11:35:02.054Z,1.70
2023-05-25T11:40:07.494Z,1.13
2023-05-25T11:45:14.920Z,0.75
2023-05-25T11:50:17.650Z,1.15
2023-05-25T11:55:19.890Z,0.85
2023-05-25T12:00:26.809Z,1.08
2023-05-25T12:05:38.170Z,0.80
2023-05-25T12:10:51.496Z,0.73
2023-05-25T12:15:57.987Z,0.90
2023-05-25T12:21:00.385Z,0.80
2023-05-25T12:26:16.887Z,1.02
2023-05-25T12:31:27.274Z,0.90
2023-05-25T12:36:50.351Z,0.77
2023-05-25T12:41:55.116Z,0.73
2023-05-25T12:47:10.200Z,0.63
2023-05-25T12:52:31.473Z,0.68
2023-05-25T12:57:36.672Z,0.63
2023-05-25T13:02:38.802Z,0.75
2023-05-25T13:07:41.056Z,0.98
2023-05-25T13:12:45.073Z,0.60
2023-05-25T13:17:47.787Z,1.02
2023-05-25T13:22:51.935Z,0.82
2023-05-25T13:27:55.224Z,1.20
2023-05-25T13:32:57.573Z,0.80
2023-05-25T13:37:59.991Z,0.98
2023-05-25T13:43:02.084Z,1.45
2023-05-25T13:48:05.335Z,1.17
2023-05-25T13:53:08.057Z,1.00
2023-05-25T13:58:10.537Z,1.05
2023-05-25T14:03:13.179Z,1.08
2023-05-25T14:08:15.949Z,1.00
2023-05-25T14:13:18.178Z,1.10
2023-05-25T14:18:20.393Z,1.45
2023-05-25T14:23:22.934Z,1.30
2023-05-25T14:28:24.959Z,1.63
2023-05-25T14:33:26.949Z,1.55
2023-05-25T14:38:30.930Z,1.50
2023-05-25T14:43:33.647Z,1.73
2023-05-25T14:48:36.688Z,1.33
2023-05-25T14:53:38.939Z,1.40
2023-05-25T14:58:40.903Z,1.17
2023-05-25T15:03:43.055Z,1.48
2023-05-25T15:08:45.153Z,1.13
2023-05-25T15:13:47.296Z,2.25
2023-05-25T15:18:49.386Z,1.33
2023-05-25T15:23:51.934Z,2.40
2023-05-25T15:28:54.007Z,2.40
2023-05-25T15:33:58.974Z,1.92
2023-05-25T15:39:01.942Z,1.38
2023-05-25T15:44:08.461Z,1.27
2023-05-25T15:49:13.577Z,1.42
2023-05-25T15:54:15.821Z,1.95
2023-05-25T15:59:18.029Z,1.58
2023-05-25T16:04:20.569Z,0.93
2023-05-25T16:09:22.772Z,1.05
2023-05-25T16:14:26.909Z,1.02
2023-05-25T16:19:28.978Z,1.15
2023-05-25T16:24:31.023Z,1.45
2023-05-25T16:29:33.266Z,1.20
2023-05-25T16:34:35.437Z,0.77
2023-05-25T16:39:37.619Z,1.10
2023-05-25T16:44:39.543Z,0.95
2023-05-25T16:49:41.432Z,0.98
2023-05-25T16:54:43.659Z,0.88
2023-05-25T16:59:46.121Z,1.20
2023-05-25T17:04:48.476Z,1.23
2023-05-25T17:09:50.429Z,1.20
2023-05-25T17:14:52.494Z,1.08
2023-05-25T17:19:54.593Z,0.82
2023-05-25T17:24:56.706Z,1.00
2023-05-25T17:29:59.150Z,0.98
2023-05-25T17:35:01.142Z,1.00
2023-05-25T17:40:03.908Z,0.75
2023-05-25T17:45:10.932Z,0.95
2023-05-25T17:50:13.061Z,2.05
2023-05-25T17:55:15.113Z,1.55
2023-05-25T18:00:23.151Z,1.77
2023-05-25T18:05:25.308Z,1.25
2023-05-25T18:10:27.652Z,1.77
2023-05-25T18:15:29.778Z,2.25
2023-05-25T18:20:35.106Z,1.45
2023-05-25T18:25:37.180Z,2.20
2023-05-25T18:30:39.376Z,1.88
2023-05-25T18:35:41.492Z,1.98
2023-05-25T18:40:43.588Z,2.05
2023-05-25T18:45:47.455Z,1.67
2023-05-25T18:50:50.108Z,1.45
2023-05-25T18:55:52.550Z,1.88
2023-05-25T19:00:54.519Z,1.80
2023-05-25T19:05:56.586Z,1.65
2023-05-25T19:10:58.661Z,1.35
2023-05-25T19:16:01.647Z,1.52
2023-05-25T19:21:04.330Z,1.48
2023-05-25T19:26:06.710Z,2.05
2023-05-25T19:31:09.272Z,1.30
2023-05-25T19:36:11.446Z,1.50
2023-05-25T19:41:13.554Z,1.65
2023-05-25T19:46:15.932Z,1.48
2023-05-25T19:51:18.359Z,1.48
2023-05-25T19:56:21.802Z,1.17
2023-05-25T20:01:23.886Z,1.65
2023-05-25T20:06:26.088Z,1.40
2023-05-25T20:11:28.750Z,1.65
2023-05-25T20:16:31.025Z,1.30
2023-05-25T20:21:33.246Z,1.50
2023-05-25T20:26:35.210Z,1.30
2023-05-25T20:31:37.497Z,0.80
2023-05-25T20:36:39.663Z,1.13
2023-05-25T20:41:42.108Z,0.70
2023-05-25T20:46:44.421Z,1.13
2023-05-25T20:51:50.281Z,0.80
2023-05-25T20:56:52.402Z,1.00
2023-05-25T21:01:54.347Z,1.02
2023-05-25T21:06:56.585Z,0.88
2023-05-25T21:11:59.253Z,0.73
2023-05-25T21:17:01.576Z,1.30
2023-05-25T21:22:03.690Z,0.95
2023-05-25T21:27:05.937Z,0.98
2023-05-25T21:32:08.199Z,0.70
2023-05-25T21:37:10.142Z,0.70
2023-05-25T21:42:12.099Z,0.80
2023-05-25T21:47:14.159Z,0.63
2023-05-25T21:52:16.456Z,1.30
2023-05-25T21:57:18.326Z,1.25
2023-05-25T22:02:20.693Z,0.82
2023-05-25T22:07:22.787Z,0.80
2023-05-25T22:12:24.638Z,0.85
2023-05-25T22:17:26.648Z,0.98
2023-05-25T22:22:28.653Z,0.88
2023-05-25T22:27:30.709Z,0.77
2023-05-25T22:32:32.631Z,0.60
2023-05-25T22:37:34.589Z,0.80
2023-05-25T22:42:36.532Z,1.00
2023-05-25T22:47:38.672Z,0.73
2023-05-25T22:52:41.879Z,1.42
2023-05-25T22:57:44.004Z,0.80
2023-05-25T23:02:46.149Z,0.98
2023-05-25T23:07:48.242Z,1.30
2023-05-25T23:12:51.666Z,1.10
2023-05-25T23:17:53.600Z,0.80
2023-05-25T23:22:55.794Z,1.17
2023-05-25T23:27:58.132Z,1.00
2023-05-25T23:33:01.150Z,1.20
2023-05-25T23:38:03.463Z,1.40
2023-05-25T23:43:05.603Z,1.08
2023-05-25T23:48:07.869Z,0.98
2023-05-25T23:53:10.078Z,1.10
2023-05-25T23:58:12.311Z,1.50
